KDLN/DLN METAR and TAF weather

Enter ICAO airport designator
Station Type Date Time Source
KDLN METAR 2019/05/25 14:53 UTC NOAA

KDLN 251453Z AUTO 21005KT 10SM FEW004 FEW047 OVC090 06/06 A2992 RMK AO2 SLP119 T00610061 50004


Station Type Date Time Source
KDLN Decoded METAR 2019/05/25 14:53 UTC NOAA

DILLON AIRPORT, MT, United States (KDLN) 45-15N 112-33W 1591M
May 25, 2019 - 10:53 AM EDT / 2019.05.25 1453 UTC
Wind: from the SSW (210 degrees) at 6 MPH (5 KT):0
Visibility: 10 mile(s):0
Sky conditions: overcast
Temperature: 43.0 F (6.1 C)
Dew Point: 43.0 F (6.1 C)
Relative Humidity: 100%
Pressure (altimeter): 29.92 in. Hg (1013 hPa)
Pressure tendency: 0.01 inches (0.4 hPa) higher than three hours ago
ob: KDLN 251453Z AUTO 21005KT 10SM FEW004 FEW047 OVC090 06/06 A2992 RMK AO2 SLP119 T00610061 50004
cycle: 15

Station Type Date Time Source
KDLN TAF UTC NOAA

Error!

Example: see airport list